Guild, Tennessee
Current Conditions -  °F | °C
As of 5:53 PM on Wednesday 26 Nov 2014 (Local Time) from KCHA Reporting Station
Overcast Overcast  
Wind Chill: 50°   Ceiling: 8500
Heat Index: 50°   Visibility: 10mi
Dew Point: 26°   Wind: 5mph
Humidity: 39%   Direction: 160°SSE
Pressure: 30.04"   Gusts: NA
Location:  35.04°N, 85.53°W
Report Text: KCHA 262353Z 16004KT 10SM BKN085 BKN110 OVC200 10/M03 A3004 RMK AO2 SLP172 T01001033 10122 20078 58004
Loading
Personal Weather Stations






























Interactive Weather Map New forecast layout! Learn more

10-Day Weather Forecast

Advertisements
Track Severe Weather on mobile